Time;durP1;ratioP1;P1;durP2;ratioP2;P2;SDS_P1;SDS_P2;PMS_P1;PMS_P2;Temp;Humidity;BMP_temperature;BMP_pressure;BME280_temperature;BME280_humidity;BME280_pressure;Samples;Min_cycle;Max_cycle;Signal;HPM_P1;HPM_P2
2022/09/24 00:01:28;;;;;;;10.30;4.68;;;10.80;99.90;;;9.63;86.84;101050.41;4922916;29;20067;-78
2022/09/24 00:04:03;;;;;;;8.70;4.93;;;10.80;99.90;;;9.67;86.70;101047.66;4921417;29;20065;-78
2022/09/24 00:06:34;;;;;;;8.55;4.80;;;10.90;99.90;;;9.71;86.48;101044.84;4938121;28;20114;-78
2022/09/24 00:09:00;;;;;;;6.88;4.47;;;10.90;99.90;;;9.68;86.63;101046.75;4938099;28;20040;-77
2022/09/24 00:11:27;;;;;;;8.55;4.10;;;10.80;99.90;;;9.67;86.12;101052.91;4938048;28;20106;-78
2022/09/24 00:13:58;;;;;;;5.70;3.97;;;10.80;99.90;;;9.68;86.22;101046.75;4936959;28;20043;-78
2022/09/24 00:16:27;;;;;;;6.25;3.95;;;10.80;99.90;;;9.68;86.23;101038.88;4937831;28;20028;-78
2022/09/24 00:18:53;;;;;;;8.40;3.70;;;10.80;99.90;;;9.68;85.96;101041.50;4937870;29;20448;-78
2022/09/24 00:21:25;;;;;;;6.90;4.35;;;10.90;99.90;;;9.67;86.24;101038.00;4938794;28;20171;-78
2022/09/24 00:23:59;;;;;;;7.28;3.72;;;10.80;99.90;;;9.65;86.37;101029.31;4921878;29;20051;-78
2022/09/24 00:29:16;;;;;;;8.18;4.05;;;10.80;99.90;;;9.55;86.83;101027.97;4940557;28;20043;-78
2022/09/24 00:31:42;;;;;;;7.50;4.00;;;10.80;99.90;;;9.54;86.84;101026.22;4937355;28;20042;-78
2022/09/24 00:34:08;;;;;;;8.93;4.25;;;10.80;99.90;;;9.58;86.69;101023.41;4937273;29;20036;-77
2022/09/24 00:36:39;;;;;;;11.05;4.00;;;10.80;99.90;;;9.58;86.34;101020.78;4937350;29;20035;-78
2022/09/24 00:39:06;;;;;;;9.80;4.55;;;10.80;99.90;;;9.60;86.09;101026.84;4936676;29;20459;-78
2022/09/24 00:41:36;;;;;;;5.00;3.90;;;10.80;99.90;;;9.57;86.32;101026.97;4936979;29;20110;-78
2022/09/24 00:44:45;;;;;;;6.35;3.72;;;10.80;99.90;;;9.56;86.19;101024.41;4937243;29;20042;-78
2022/09/24 00:47:30;;;;;;;5.20;3.67;;;10.70;99.90;;;9.41;86.12;101024.03;4938284;28;20087;-78
2022/09/24 00:50:45;;;;;;;9.57;4.00;;;10.70;99.90;;;9.47;86.68;101015.09;4935569;29;20044;-78
2022/09/24 00:53:19;;;;;;;5.70;3.95;;;10.70;99.90;;;9.51;86.52;101014.06;4905416;29;20055;-78
2022/09/24 00:55:51;;;;;;;5.93;4.22;;;10.70;99.90;;;9.52;86.00;101017.53;4936400;29;20039;-78
2022/09/24 00:58:17;;;;;;;7.28;4.03;;;10.70;99.90;;;9.48;86.58;101011.56;4919070;28;20043;-78
2022/09/24 01:00:44;;;;;;;5.55;4.13;;;10.70;99.90;;;9.46;86.39;101002.88;4936668;29;20045;-78
2022/09/24 01:03:23;;;;;;;5.80;3.97;;;10.70;99.90;;;9.51;86.68;101013.22;4934615;29;20039;-78
2022/09/24 01:05:50;;;;;;;4.47;3.70;;;10.70;99.90;;;9.50;86.74;101008.84;4938645;28;20023;-78
2022/09/24 01:08:20;;;;;;;5.88;3.95;;;10.70;99.90;;;9.49;86.47;101009.78;4936388;29;20038;-78
2022/09/24 01:11:43;;;;;;;6.93;4.43;;;10.70;99.90;;;9.36;86.51;100999.72;4935646;28;20059;-78
2022/09/24 01:14:47;;;;;;;9.00;4.03;;;10.60;99.90;;;9.36;87.13;101006.75;4895242;29;20767;-77
2022/09/24 01:17:49;;;;;;;6.38;4.28;;;10.60;99.90;;;9.25;87.04;101001.91;4937130;28;20031;-78
2022/09/24 01:20:35;;;;;;;8.43;4.22;;;10.50;99.90;;;9.29;87.67;100992.09;4935736;29;20035;-78
2022/09/24 01:23:39;;;;;;;6.63;4.53;;;10.50;99.90;;;9.29;87.63;101000.88;4935001;29;20035;-78
2022/09/24 01:26:44;;;;;;;8.82;4.25;;;10.50;99.90;;;9.31;87.23;100995.53;4929122;29;20038;-78
2022/09/24 01:29:57;;;;;;;7.03;4.35;;;10.60;99.90;;;9.23;87.50;100996.69;4936089;29;20040;-77
2022/09/24 01:32:37;;;;;;;8.73;4.50;;;10.50;99.90;;;9.22;88.60;100992.34;4931239;29;20529;-78
2022/09/24 01:35:09;;;;;;;6.93;4.35;;;10.50;99.90;;;9.17;89.07;100990.78;4935887;28;20035;-77
2022/09/24 01:37:40;;;;;;;6.63;4.40;;;10.40;99.90;;;9.22;89.15;100981.84;4936335;28;20059;-77
2022/09/24 01:40:08;;;;;;;12.85;5.45;;;10.50;99.90;;;9.22;89.30;100984.47;4934696;29;20409;-78
2022/09/24 01:42:36;;;;;;;10.07;4.65;;;10.50;99.90;;;9.17;89.81;100991.66;4935724;29;20027;-77
2022/09/24 01:45:04;;;;;;;7.93;4.88;;;10.50;99.90;;;9.21;89.44;100976.63;4934630;29;20409;-77
2022/09/24 01:47:38;;;;;;;9.63;4.90;;;10.50;99.90;;;9.22;89.19;100981.84;4933841;29;20059;-77
2022/09/24 01:50:18;;;;;;;10.18;4.90;;;10.40;99.90;;;9.17;89.65;100981.13;4933897;28;20516;-78
2022/09/24 01:53:05;;;;;;;8.15;4.43;;;10.40;99.90;;;9.22;89.25;100978.34;4937719;28;20037;-77
2022/09/24 01:55:41;;;;;;;6.38;4.80;;;10.40;99.90;;;9.15;89.25;100977.72;4934342;29;20067;-76
2022/09/24 01:58:20;;;;;;;5.43;4.45;;;10.40;99.90;;;9.21;88.89;100988.00;4921138;29;20034;-77
2022/09/24 02:00:52;;;;;;;6.43;4.65;;;10.40;99.90;;;9.22;88.48;100973.97;4933933;28;20491;-77
2022/09/24 02:03:28;;;;;;;9.98;4.80;;;10.40;99.90;;;9.21;88.76;100980.13;4934561;29;20122;-77
2022/09/24 02:06:13;;;;;;;10.05;4.63;;;10.40;99.90;;;9.14;88.91;100980.41;4934406;29;20028;-77
2022/09/24 02:08:44;;;;;;;6.22;4.28;;;10.40;99.90;;;9.21;89.21;100971.38;4935990;28;20253;-77
2022/09/24 02:11:21;;;;;;;15.80;4.95;;;10.40;99.90;;;9.24;88.75;100972.13;4933181;29;20032;-77
2022/09/24 02:14:01;;;;;;;9.73;4.95;;;10.50;99.90;;;9.26;88.65;100960.69;4937682;29;20032;-77
2022/09/24 02:16:35;;;;;;;9.00;4.80;;;10.40;99.90;;;9.26;88.46;100968.59;4953395;29;20046;-77
2022/09/24 02:19:07;;;;;;;14.60;4.90;;;10.50;99.90;;;9.28;88.09;100962.34;4954963;29;20036;-77
2022/09/24 02:21:35;;;;;;;9.57;4.60;;;10.50;99.90;;;9.28;88.48;100957.09;4941920;29;20032;-77
2022/09/24 02:24:11;;;;;;;9.35;4.95;;;10.50;99.90;;;9.32;87.78;100952.59;4940009;29;20032;-77
2022/09/24 02:26:37;;;;;;;7.60;4.97;;;10.40;99.90;;;9.27;88.53;100951.91;4938534;28;20019;-77
2022/09/24 02:29:04;;;;;;;5.82;4.53;;;10.40;99.90;;;9.18;88.90;100946.09;4939349;29;20035;-77
2022/09/24 02:31:38;;;;;;;9.93;5.07;;;10.50;99.90;;;9.24;88.65;100953.75;4924841;28;20944;-78
2022/09/24 02:34:21;;;;;;;8.38;4.90;;;10.50;99.90;;;9.24;88.87;100950.25;4938854;29;20059;-77
2022/09/24 02:36:49;;;;;;;7.68;5.03;;;10.40;99.90;;;9.21;88.91;100940.72;4938281;28;20036;-77
2022/09/24 02:39:18;;;;;;;6.95;5.15;;;10.40;99.90;;;9.20;89.69;100951.25;4937519;29;20043;-77
2022/09/24 02:41:49;;;;;;;12.00;5.25;;;10.40;99.90;;;9.19;89.47;100947.78;4923864;29;20024;-77
2022/09/24 02:44:16;;;;;;;9.60;5.38;;;10.40;99.90;;;9.23;90.06;100948.53;4937900;29;20039;-77
2022/09/24 02:46:47;;;;;;;13.25;5.55;;;10.40;99.90;;;9.21;89.68;100950.38;4938242;28;20024;-77
2022/09/24 02:49:14;;;;;;;8.48;5.47;;;10.40;99.90;;;9.26;89.71;100952.81;4937983;29;20044;-78
2022/09/24 02:51:41;;;;;;;12.85;5.85;;;10.50;99.90;;;9.29;89.60;100952.69;4935742;29;20031;-77
2022/09/24 02:54:08;;;;;;;6.53;5.45;;;10.50;99.90;;;9.29;89.33;100945.69;4922414;29;20123;-77
2022/09/24 02:56:39;;;;;;;8.27;5.30;;;10.50;99.90;;;9.36;89.08;100949.78;4936260;29;20098;-77
2022/09/24 02:59:05;;;;;;;10.68;6.07;;;10.60;99.90;;;9.38;88.59;100944.47;4922173;28;20020;-78
2022/09/24 03:01:32;;;;;;;9.88;5.72;;;10.60;99.90;;;9.36;88.10;100943.69;4934801;29;20043;-77
2022/09/24 03:03:58;;;;;;;11.05;5.78;;;10.60;99.90;;;9.40;88.38;100937.41;4936534;29;20078;-77
2022/09/24 03:06:27;;;;;;;11.07;5.53;;;10.60;99.90;;;9.43;88.28;100937.25;4935753;28;20476;-77
2022/09/24 03:08:53;;;;;;;9.43;6.25;;;10.60;99.90;;;9.46;88.15;100934.53;4936091;29;20032;-77
2022/09/24 03:11:21;;;;;;;13.57;6.32;;;10.70;99.90;;;9.47;87.70;100936.22;4935851;28;20051;-77
2022/09/24 03:13:48;;;;;;;9.40;6.00;;;10.70;99.90;;;9.46;88.07;100934.53;4935369;29;20046;-77
2022/09/24 03:16:15;;;;;;;24.33;6.93;;;10.70;99.90;;;9.47;87.78;100936.22;4936474;29;20444;-77
2022/09/24 03:18:44;;;;;;;10.88;6.32;;;10.70;99.90;;;9.51;87.99;100937.84;4922876;28;20038;-77
2022/09/24 03:21:13;;;;;;;9.60;6.35;;;10.70;99.90;;;9.49;88.06;100931.78;4951306;28;20036;-77
2022/09/24 03:23:40;;;;;;;10.18;6.18;;;10.70;99.90;;;9.51;87.86;100931.72;4937262;28;20035;-77
2022/09/24 03:26:06;;;;;;;9.43;6.70;;;10.70;99.90;;;9.52;87.58;100929.00;4935716;29;20098;-77
2022/09/24 03:28:32;;;;;;;11.98;6.70;;;10.70;99.90;;;9.52;87.57;100926.38;4935433;29;20059;-77
2022/09/24 03:31:04;;;;;;;10.00;6.30;;;10.70;99.90;;;9.46;88.28;100929.28;4938302;28;20046;-77
2022/09/24 03:33:35;;;;;;;12.43;6.93;;;10.70;99.90;;;9.49;88.00;100931.78;4936171;28;20032;-76
2022/09/24 03:36:06;;;;;;;9.70;6.60;;;10.70;99.90;;;9.50;88.04;100933.47;4937072;29;20118;-77
2022/09/24 03:38:33;;;;;;;15.23;6.35;;;10.60;99.90;;;9.45;88.57;100933.66;4937794;28;20031;-78
2022/09/24 03:41:00;;;;;;;15.25;6.85;;;10.60;99.90;;;9.42;88.44;100928.53;4923441;28;20592;-77
2022/09/24 03:43:27;;;;;;;10.98;6.57;;;10.60;99.90;;;9.41;88.47;100920.69;4919505;29;20556;-77
2022/09/24 03:45:54;;;;;;;9.73;6.28;;;10.60;99.90;;;9.41;88.55;100921.53;4920425;29;20047;-78
2022/09/24 03:49:16;;;;;;;13.98;6.85;;;10.60;99.90;;;9.37;88.53;100917.34;4937759;29;20036;-78
2022/09/24 03:51:41;;;;;;;9.32;6.65;;;10.50;99.90;;;9.35;88.46;100924.44;4904743;29;20440;-78
2022/09/24 03:54:07;;;;;;;14.50;6.78;;;10.50;99.90;;;9.33;88.83;100922.75;4920633;29;20035;-77
2022/09/24 03:56:33;;;;;;;10.90;7.07;;;10.50;99.90;;;9.35;88.67;100915.66;4935409;28;20502;-77
2022/09/24 03:58:59;;;;;;;8.93;6.80;;;10.50;99.90;;;9.26;89.48;100922.13;4937796;29;20111;-77
2022/09/24 04:01:24;;;;;;;12.88;6.75;;;10.50;99.90;;;9.24;89.71;100914.34;4935157;29;20130;-77
2022/09/24 04:03:51;;;;;;;9.38;7.07;;;10.40;99.90;;;9.23;89.34;100907.34;4936543;28;20129;-77
2022/09/24 04:06:17;;;;;;;11.48;7.88;;;10.40;99.90;;;9.22;89.68;100910.91;4935390;29;20054;-77
2022/09/24 04:08:43;;;;;;;9.23;6.78;;;10.40;99.90;;;9.22;89.47;100912.66;4936073;28;20036;-77
2022/09/24 04:11:09;;;;;;;11.23;7.20;;;10.40;99.90;;;9.16;90.14;100911.13;4934104;28;20099;-77
2022/09/24 04:13:34;;;;;;;11.43;6.93;;;10.40;99.90;;;9.14;90.04;100915.59;4921488;29;20118;-77
2022/09/24 04:16:11;;;;;;;9.07;7.07;;;10.40;99.90;;;9.15;90.19;100909.41;4971881;23;20138;-79
2022/09/24 04:18:38;;;;;;;;;;;10.40;99.90;;;9.14;90.14;100910.34;4948090;28;20042;-79
2022/09/24 04:21:07;;;;;;;13.60;6.80;;;10.30;99.90;;;9.13;89.75;100908.59;4951457;28;19966;-80
2022/09/24 04:23:35;;;;;;;9.07;6.82;;;10.30;99.90;;;9.13;89.26;100911.22;4962977;28;20024;-79
2022/09/24 04:26:01;;;;;;;8.90;6.70;;;10.30;99.90;;;9.13;89.47;100913.00;4959438;28;20110;-80
2022/09/24 04:28:29;;;;;;;9.75;6.63;;;10.30;99.90;;;9.13;89.69;100908.59;4967591;28;20027;-79
2022/09/24 04:30:55;;;;;;;13.38;7.38;;;10.30;99.90;;;9.13;89.67;100911.22;4968925;28;20079;-79
2022/09/24 04:33:26;;;;;;;11.10;7.43;;;10.30;99.90;;;9.11;90.10;100907.81;4968533;28;20039;-78
2022/09/24 04:35:52;;;;;;;12.30;7.53;;;10.30;99.90;;;9.11;89.93;100910.44;4952984;28;20059;-79
2022/09/24 04:38:19;;;;;;;9.98;7.30;;;10.30;99.90;;;9.07;91.32;100900.97;4965719;28;20038;-78
2022/09/24 04:40:46;;;;;;;10.93;7.88;;;10.30;99.90;;;9.06;90.96;100906.28;4949667;28;20131;-79
2022/09/24 04:43:12;;;;;;;13.98;7.90;;;10.20;99.90;;;8.96;91.50;100900.50;4963078;28;20047;-79
2022/09/24 04:45:44;;;;;;;15.00;7.90;;;10.20;99.90;;;8.97;91.35;100907.47;4969920;28;20035;-80
2022/09/24 04:48:10;;;;;;;12.23;8.18;;;10.20;99.90;;;8.97;92.10;100907.47;4967099;28;20070;-79
2022/09/24 04:50:37;;;;;;;11.70;7.90;;;10.20;99.90;;;8.99;92.07;100913.53;4968979;28;20614;-80
2022/09/24 04:53:03;;;;;;;15.38;8.23;;;10.20;99.90;;;8.96;92.50;100905.75;4965899;28;20051;-79
2022/09/24 04:55:36;;;;;;;10.63;7.15;;;10.10;99.90;;;8.89;93.28;100901.66;4966540;28;20047;-79
2022/09/24 04:58:02;;;;;;;11.63;8.02;;;10.10;99.90;;;8.90;93.66;100905.97;4969569;28;20495;-80
2022/09/24 05:00:32;;;;;;;15.75;8.30;;;10.10;99.90;;;8.89;94.07;100909.53;4964790;28;20097;-79
2022/09/24 05:03:04;;;;;;;12.07;7.53;;;10.10;99.90;;;8.89;94.07;100907.75;4963239;28;20707;-80
2022/09/24 05:05:32;;;;;;;14.50;7.80;;;10.10;99.90;;;8.89;93.84;100906.91;4968198;28;20158;-79
2022/09/24 05:08:00;;;;;;;17.67;8.27;;;10.10;99.90;;;8.90;94.21;100906.84;4968301;28;20026;-79
2022/09/24 05:10:32;;;;;;;12.02;7.88;;;10.10;99.90;;;8.83;94.79;100903.59;4949492;28;20035;-79
2022/09/24 05:12:58;;;;;;;16.33;9.00;;;10.10;99.90;;;8.88;94.42;100905.19;4979196;28;20061;-79
2022/09/24 05:15:24;;;;;;;16.77;7.90;;;10.10;99.90;;;8.89;94.90;100912.16;4966758;28;20638;-80
2022/09/24 05:17:50;;;;;;;14.77;8.50;;;10.10;99.90;;;8.94;94.52;100911.09;4961899;28;20038;-80
2022/09/24 05:20:15;;;;;;;16.83;8.13;;;10.10;99.90;;;8.93;94.55;100914.59;4966313;28;20079;-80
2022/09/24 05:22:48;;;;;;;10.98;7.65;;;10.10;99.90;;;8.92;95.01;100912.91;4967564;28;20067;-79
2022/09/24 05:25:17;;;;;;;13.40;6.90;;;10.10;99.90;;;8.98;94.13;100909.19;4966941;28;20062;-80
2022/09/24 05:27:54;;;;;;;12.35;7.40;;;10.20;99.90;;;9.04;93.60;100906.31;4982568;28;20415;-80
2022/09/24 05:30:23;;;;;;;13.50;7.70;;;10.20;99.90;;;9.09;93.07;100912.25;4961343;28;20038;-80
2022/09/24 05:32:57;;;;;;;14.48;7.60;;;10.30;99.90;;;9.16;92.63;100913.75;4964806;28;20035;-80
2022/09/24 05:35:23;;;;;;;15.40;6.45;;;10.40;99.90;;;9.21;92.29;100917.06;4968087;28;20451;-81
2022/09/24 05:37:52;;;;;;;11.93;7.10;;;10.40;99.90;;;9.29;92.23;100923.78;4984350;28;20062;-79
2022/09/24 05:43:09;;;;;;;9.43;7.05;;;10.50;99.90;;;9.36;91.64;100918.25;4978278;28;20539;-80
2022/09/24 05:45:35;;;;;;;11.48;7.50;;;10.50;99.90;;;9.39;91.71;100918.13;4967689;28;20047;-79
2022/09/24 05:48:08;;;;;;;10.88;6.90;;;10.60;99.90;;;9.40;91.58;100925.09;4967043;28;20123;-80
2022/09/24 05:50:34;;;;;;;10.95;6.90;;;10.60;99.90;;;9.46;90.98;100916.13;4981676;28;20031;-80
2022/09/24 05:53:01;;;;;;;11.60;6.95;;;10.70;99.90;;;9.51;90.56;100916.81;4980157;28;20419;-79
2022/09/24 05:55:27;;;;;;;16.67;6.85;;;10.70;99.90;;;9.59;90.35;100922.63;4964967;28;20027;-80
2022/09/24 05:58:00;;;;;;;13.02;6.35;;;10.80;99.90;;;9.68;90.00;100921.41;4965717;28;20510;-80
2022/09/24 06:00:26;;;;;;;10.00;6.18;;;10.80;99.90;;;9.72;90.09;100927.38;4959263;28;20027;-79
2022/09/24 06:02:52;;;;;;;10.38;6.40;;;10.80;99.90;;;9.78;89.68;100924.50;4980171;28;20037;-80
2022/09/24 06:05:18;;;;;;;10.75;6.53;;;10.90;99.90;;;9.81;89.86;100935.78;4966327;28;20034;-80
2022/09/24 06:07:44;;;;;;;11.45;6.20;;;10.90;99.90;;;9.85;89.16;100939.13;4963727;28;20380;-80
2022/09/24 06:10:17;;;;;;;13.55;6.82;;;11.00;99.90;;;9.89;89.12;100938.06;4964946;28;20120;-79
2022/09/24 06:12:43;;;;;;;9.25;6.18;;;11.00;99.90;;;9.94;88.95;100936.13;4978053;28;20098;-80
2022/09/24 06:15:09;;;;;;;10.95;6.68;;;11.10;99.90;;;10.02;89.04;100941.06;4965962;28;20324;-79
2022/09/24 06:17:35;;;;;;;12.18;6.75;;;11.10;99.90;;;10.09;89.06;100933.81;4956404;28;20034;-79
2022/09/24 06:20:06;;;;;;;10.38;6.47;;;11.20;99.90;;;10.18;88.15;100938.69;4966595;28;20073;-80
2022/09/24 06:22:32;;;;;;;11.20;6.25;;;11.30;99.90;;;10.29;87.84;100941.75;4963712;28;20094;-79
2022/09/24 06:24:58;;;;;;;10.55;6.68;;;11.40;99.90;;;10.42;87.20;100942.09;4944156;28;20126;-79
2022/09/24 06:27:24;;;;;;;7.93;5.75;;;11.50;99.90;;;10.53;86.73;100946.88;4947729;28;20118;-79
2022/09/24 06:29:49;;;;;;;12.15;6.22;;;11.50;99.90;;;10.66;87.06;100953.34;4964589;28;20031;-79
2022/09/24 06:32:16;;;;;;;9.00;6.32;;;11.70;99.90;;;10.93;86.11;100953.03;4963910;28;20027;-80
2022/09/24 06:34:47;;;;;;;9.02;6.53;;;11.80;99.90;;;11.25;84.86;100951.59;4965012;28;20027;-79
2022/09/24 06:37:13;;;;;;;9.15;6.10;;;12.00;99.90;;;11.79;83.43;100954.34;4979114;28;20034;-80
2022/09/24 06:39:39;;;;;;;9.45;5.88;;;12.40;99.90;;;12.33;80.98;100960.50;4962596;28;20119;-79
2022/09/24 06:42:05;;;;;;;12.70;6.13;;;12.70;99.90;;;13.09;78.23;100966.28;4975501;28;20506;-79
2022/09/24 06:44:33;;;;;;;10.02;6.13;;;13.10;99.90;;;13.80;74.46;100958.94;4968686;28;20109;-79
2022/09/24 06:47:03;;;;;;;10.45;5.90;;;13.70;99.90;;;14.36;71.90;100968.06;4945740;28;20143;-79
2022/09/24 06:49:30;;;;;;;8.82;5.30;;;14.20;99.90;;;15.04;69.60;100975.50;4963101;28;20023;-80
2022/09/24 06:51:57;;;;;;;13.40;5.68;;;14.60;99.90;;;15.49;67.83;100965.63;4982163;28;20050;-80
2022/09/24 06:54:31;;;;;;;9.88;5.70;;;15.00;99.90;;;15.44;66.62;100962.41;4967015;23;20102;-79
2022/09/24 06:56:57;;;;;;;10.32;5.25;;;15.30;99.90;;;15.57;67.00;100967.78;4920701;29;20085;-80
2022/09/24 06:59:23;;;;;;;9.63;5.20;;;15.50;99.90;;;15.59;66.46;100972.06;4937452;28;20016;-81
2022/09/24 07:01:49;;;;;;;8.15;5.03;;;15.60;99.90;;;15.32;67.00;100969.34;4956328;28;20039;-79
2022/09/24 07:04:15;;;;;;;7.88;4.65;;;15.70;99.90;;;15.24;67.27;100968.13;4941112;28;20034;-80
2022/09/24 07:09:27;;;;;;;8.05;5.22;;;15.60;99.90;;;15.22;67.57;100981.47;4947183;28;20038;-80
2022/09/24 07:11:55;;;;;;;8.85;4.40;;;15.70;99.90;;;15.67;66.56;100982.19;4944503;28;20035;-80
2022/09/24 07:14:21;;;;;;;7.13;5.07;;;15.90;99.90;;;16.35;65.23;100989.31;4945120;28;20063;-79
2022/09/24 07:16:47;;;;;;;8.45;4.90;;;16.30;99.90;;;16.91;63.83;100985.56;4964064;28;20055;-80
2022/09/24 07:19:20;;;;;;;6.43;4.68;;;16.90;99.90;;;17.63;62.17;100999.13;4962550;28;20110;-80
2022/09/24 07:21:46;;;;;;;6.35;4.47;;;17.40;99.90;;;18.29;59.48;100994.31;4945671;28;20039;-80
2022/09/24 07:24:11;;;;;;;9.90;4.82;;;18.10;99.90;;;18.95;58.06;100994.66;4945194;28;20107;-80
2022/09/24 07:26:37;;;;;;;9.85;4.15;;;18.70;99.90;;;19.35;57.01;101002.22;4926922;29;20126;-80
2022/09/24 07:29:08;;;;;;;8.82;4.65;;;19.10;99.90;;;19.65;56.31;100998.91;4943200;28;20042;-80
2022/09/24 07:31:36;;;;;;;7.05;4.30;;;19.60;99.90;;;20.08;55.59;101006.13;4945335;29;20082;-80
2022/09/24 07:34:05;;;;;;;6.82;4.50;;;20.00;99.90;;;19.78;56.05;101004.13;4943735;28;20031;-80
2022/09/24 07:36:35;;;;;;;6.85;4.00;;;20.30;99.90;;;19.42;56.79;101007.91;4944629;28;20117;-79
2022/09/24 07:39:03;;;;;;;6.45;4.00;;;20.50;99.90;;;19.50;57.56;101001.94;4942279;28;20087;-80
2022/09/24 07:41:29;;;;;;;11.43;4.00;;;20.80;99.90;;;19.56;56.38;101007.66;4926446;28;20031;-80
2022/09/24 07:43:55;;;;;;;6.72;3.88;;;21.00;99.90;;;19.78;56.45;101006.78;4943863;28;20384;-79
2022/09/24 07:46:22;;;;;;;5.40;3.95;;;21.30;99.90;;;19.92;55.13;101005.69;4944128;28;20038;-80
2022/09/24 07:48:48;;;;;;;6.15;3.67;;;21.30;99.90;;;19.86;54.94;101000.84;4943574;28;20499;-80
2022/09/24 07:51:27;;;;;;;7.97;3.85;;;21.20;99.90;;;19.63;55.79;101008.00;4941756;28;20114;-80
2022/09/24 07:53:58;;;;;;;5.70;4.18;;;21.10;99.90;;;19.53;55.87;101005.25;4941174;28;20031;-80
2022/09/24 07:56:24;;;;;;;7.88;4.10;;;20.80;99.90;;;19.25;55.69;101007.41;4942881;28;20058;-80
2022/09/24 07:58:52;;;;;;;7.13;4.03;;;20.50;99.90;;;18.94;56.54;101014.31;4946915;28;20039;-80
2022/09/24 08:01:18;;;;;;;6.80;3.88;;;20.10;99.90;;;18.67;57.62;101005.72;4942855;28;20031;-80
2022/09/24 08:03:55;;;;;;;;;;;;;;;;;;;;;
2022/09/24 08:06:22;;;;;;;11.88;4.30;;;19.70;99.90;;;18.61;57.62;101005.22;4941242;28;20019;-80
2022/09/24 08:08:55;;;;;;;8.20;4.03;;;19.60;99.90;;;18.72;57.59;101007.06;4956816;28;20030;-80
2022/09/24 08:11:21;;;;;;;7.28;4.18;;;19.60;99.90;;;18.71;57.03;101012.53;4944490;28;20495;-79
2022/09/24 08:13:47;;;;;;;6.30;3.85;;;19.50;99.90;;;18.67;57.23;101016.41;4942697;28;20031;-80
2022/09/24 08:16:15;;;;;;;8.27;4.22;;;19.40;99.90;;;18.60;57.67;101027.53;4941666;28;20027;-80
2022/09/24 08:18:48;;;;;;;6.35;3.95;;;19.30;99.90;;;18.58;58.59;101021.44;4942339;28;20032;-80
2022/09/24 08:21:14;;;;;;;6.53;4.20;;;19.30;99.90;;;18.57;58.65;101022.41;4936183;28;20122;-80
2022/09/24 08:23:41;;;;;;;6.50;4.07;;;19.30;99.90;;;18.55;57.75;101019.03;4943195;28;20027;-80
2022/09/24 08:26:17;;;;;;;6.78;4.03;;;19.30;99.90;;;18.54;58.71;101027.13;4942646;28;20034;-80
2022/09/24 08:28:42;;;;;;;5.00;3.85;;;19.20;99.90;;;18.45;59.04;101026.00;4941625;28;20542;-80
2022/09/24 08:31:21;;;;;;;5.25;3.72;;;19.10;99.90;;;18.43;58.98;101019.94;4957733;28;20103;-80
2022/09/24 08:33:49;;;;;;;6.65;3.83;;;19.10;99.90;;;18.52;58.82;101029.91;4927625;28;20039;-79
2022/09/24 08:36:16;;;;;;;8.35;4.20;;;19.20;99.90;;;18.69;58.71;101017.97;4958972;28;20066;-80
2022/09/24 08:38:55;;;;;;;5.95;3.78;;;19.50;99.90;;;19.13;57.75;101029.72;4940717;28;20102;-80
2022/09/24 08:41:39;;;;;;;6.68;3.72;;;19.80;99.90;;;19.58;56.50;101029.75;4938905;28;20035;-79
2022/09/24 08:47:21;;;;;;;7.00;3.72;;;20.30;99.90;;;19.99;55.62;101027.41;4926011;28;20130;-81
2022/09/24 08:47:21;;;;;;;7.03;3.97;;;20.60;99.90;;;20.06;55.16;101025.94;4957455;28;20474;-80
2022/09/24 08:50:16;;;;;;;9.93;4.28;;;20.60;99.90;;;20.01;55.65;101025.47;4940237;29;20109;-80
2022/09/24 08:52:41;;;;;;;9.07;4.07;;;20.60;99.90;;;20.06;55.89;101023.25;4942547;28;20234;-80
2022/09/24 08:55:24;;;;;;;7.50;3.92;;;20.50;99.90;;;19.78;55.45;101022.81;4958629;28;20499;-80
2022/09/24 08:58:16;;;;;;;8.18;4.15;;;20.50;99.90;;;19.97;56.10;101029.38;4939500;28;20108;-80
2022/09/24 09:01:19;;;;;;;9.27;3.83;;;20.60;99.90;;;20.15;54.92;101035.88;4955775;28;20106;-79
2022/09/24 09:03:55;;;;;;;5.60;3.88;;;20.70;99.90;;;20.20;54.94;101035.50;4938436;28;20043;-79
2022/09/24 09:07:05;;;;;;;6.55;4.15;;;20.80;99.90;;;20.39;54.54;101037.47;4924036;28;20027;-78
2022/09/24 09:10:06;;;;;;;7.45;3.70;;;20.70;99.90;;;20.13;55.04;101037.84;4957573;28;20031;-79
2022/09/24 09:12:47;;;;;;;5.28;3.65;;;20.70;99.90;;;20.16;55.25;101040.25;4940830;28;20031;-79
2022/09/24 09:15:24;;;;;;;6.32;3.75;;;20.70;99.90;;;20.18;55.48;101049.00;4955458;28;20185;-79
2022/09/24 09:17:56;;;;;;;4.75;3.90;;;20.80;99.90;;;20.23;55.44;101036.09;4952282;28;20086;-79
2022/09/24 09:20:42;;;;;;;4.63;3.83;;;20.80;99.90;;;20.31;55.29;101042.66;4926438;29;20381;-79
2022/09/24 09:23:38;;;;;;;6.32;3.83;;;20.80;99.90;;;20.36;55.36;101037.75;4938455;28;20054;-79
2022/09/24 09:26:18;;;;;;;8.32;3.70;;;20.90;99.90;;;20.40;54.98;101032.00;4940335;28;20031;-80
2022/09/24 09:28:45;;;;;;;8.68;4.25;;;20.90;99.90;;;20.41;54.90;101028.38;4924135;28;20038;-79
2022/09/24 09:31:53;;;;;;;9.50;4.20;;;21.00;99.90;;;20.47;55.04;101032.34;4955746;28;20058;-79
2022/09/24 09:34:48;;;;;;;6.63;4.35;;;21.10;99.90;;;20.58;55.12;101024.34;4956459;28;20034;-80
2022/09/24 09:37:35;;;;;;;4.88;3.70;;;21.10;99.90;;;20.61;54.55;101029.41;4938438;28;20037;-79
2022/09/24 09:40:54;;;;;;;6.13;3.63;;;21.20;99.90;;;20.64;54.90;101025.63;4939877;28;20038;-79
2022/09/24 09:43:20;;;;;;;6.15;4.10;;;21.20;99.90;;;20.65;55.12;101027.34;4920324;28;20102;-79
2022/09/24 09:46:24;;;;;;;8.13;4.00;;;21.20;99.90;;;20.57;54.12;101027.09;4922396;29;20146;-79
2022/09/24 09:49:04;;;;;;;6.97;4.30;;;21.10;99.90;;;20.52;55.10;101022.13;4941493;28;20706;-80
2022/09/24 09:51:37;;;;;;;8.20;4.22;;;21.00;99.90;;;20.45;55.04;101023.59;4954448;28;20085;-79
2022/09/24 09:54:07;;;;;;;6.25;4.20;;;21.00;99.90;;;20.43;55.40;101020.22;4939026;28;20090;-80
2022/09/24 09:56:47;;;;;;;5.90;4.07;;;21.00;99.90;;;20.38;55.26;101022.44;4940917;28;20050;-79
2022/09/24 09:59:22;;;;;;;6.40;4.68;;;21.00;99.90;;;20.35;54.92;101026.22;4939083;28;20023;-80
2022/09/24 10:01:58;;;;;;;7.88;4.22;;;21.00;99.90;;;20.35;55.14;101025.38;4920980;28;20047;-80
2022/09/24 10:04:38;;;;;;;;;;;21.00;99.90;;;20.42;54.61;101024.72;4953955;28;20039;-79
2022/09/24 10:07:19;;;;;;;7.18;3.97;;;21.00;99.90;;;20.51;54.65;101022.25;4954096;28;19915;-80
2022/09/24 10:09:58;;;;;;;5.25;3.40;;;21.10;99.90;;;20.59;54.63;101020.66;4941059;28;20039;-79
2022/09/24 10:12:29;;;;;;;5.70;3.78;;;21.20;99.90;;;20.73;55.06;101030.19;4941595;28;20040;-79
2022/09/24 10:15:23;;;;;;;9.80;3.10;;;21.20;99.90;;;20.88;55.00;101022.69;4938834;28;20047;-79
2022/09/24 10:17:59;;;;;;;6.03;3.08;;;21.40;99.90;;;21.00;54.94;101028.84;4940162;28;20059;-80
2022/09/24 10:20:40;;;;;;;4.80;3.53;;;21.50;99.90;;;21.01;53.69;101025.16;4956693;28;20582;-80
2022/09/24 10:23:18;;;;;;;5.38;3.70;;;21.50;99.90;;;21.05;53.80;101029.28;4931672;28;20025;-79
2022/09/24 10:25:59;;;;;;;4.68;3.58;;;21.60;99.90;;;21.08;54.33;101031.72;4938961;28;20094;-80
2022/09/24 10:31:28;;;;;;;7.78;4.32;;;21.60;99.90;;;20.97;53.33;101023.72;4942909;28;20034;-79
2022/09/24 10:33:59;;;;;;;10.90;3.75;;;21.50;99.90;;;20.96;53.30;101028.25;4954873;28;20042;-79
2022/09/24 10:36:31;;;;;;;6.40;3.28;;;21.60;99.90;;;21.01;53.17;101031.34;4940242;28;20038;-79
2022/09/24 10:39:20;;;;;;;7.55;3.47;;;21.60;99.90;;;21.03;53.87;101026.72;4943251;28;20090;-79
2022/09/24 10:41:51;;;;;;;7.07;3.67;;;21.60;99.90;;;20.94;53.22;101019.50;4943830;28;20495;-79
2022/09/24 10:44:40;;;;;;;6.38;3.30;;;21.50;99.90;;;20.84;53.51;101027.47;4960071;28;20124;-80
2022/09/24 10:47:52;;;;;;;8.43;3.63;;;21.40;99.90;;;20.73;54.24;101026.66;4944052;28;20047;-80
2022/09/24 10:50:39;;;;;;;5.32;3.58;;;21.30;99.90;;;20.55;54.28;101029.06;4957836;28;20027;-80
2022/09/24 10:53:26;;;;;;;;;;;21.30;99.90;;;20.36;55.16;101013.69;4927064;29;20442;-79